createdAt,value
2017-01-16T00:00:19.425Z,26.4
2017-01-16T00:01:18.293Z,26.4
2017-01-16T00:02:18.286Z,26.4
2017-01-16T00:03:18.443Z,26.4
2017-01-16T00:04:19.549Z,26.4
2017-01-16T00:05:18.474Z,26.4
2017-01-16T00:06:19.572Z,26.4
2017-01-16T00:07:18.515Z,26.4
2017-01-16T00:08:19.285Z,26.4
2017-01-16T00:09:18.791Z,26.4
2017-01-16T00:10:18.818Z,26.4
2017-01-16T00:11:18.801Z,26.4
2017-01-16T00:12:20.006Z,26.4
2017-01-16T00:13:19.144Z,26.4
2017-01-16T00:14:18.882Z,26.4
2017-01-16T00:15:19.676Z,26.4
2017-01-16T00:16:20.179Z,26.4
2017-01-16T00:17:21.280Z,26.4
2017-01-16T00:18:20.354Z,26.4
2017-01-16T00:19:20.276Z,26.4
2017-01-16T00:20:19.382Z,26.4
2017-01-16T00:21:20.552Z,26.4
2017-01-16T00:22:19.441Z,26.4
2017-01-16T00:23:19.482Z,26.4
2017-01-16T00:24:20.569Z,26.4
2017-01-16T00:25:20.657Z,26.4
2017-01-16T00:26:19.761Z,26.4
2017-01-16T00:27:19.728Z,26.4
2017-01-16T00:28:20.793Z,26.4
2017-01-16T00:29:19.700Z,26.4
2017-01-16T00:30:19.920Z,26.4
2017-01-16T00:31:19.863Z,26.4
2017-01-16T00:32:19.944Z,26.4
2017-01-16T00:33:20.968Z,26.4
2017-01-16T00:34:21.177Z,26.4
2017-01-16T00:35:20.089Z,26.4
2017-01-16T00:36:21.277Z,26.4
2017-01-16T00:37:20.283Z,26.4
2017-01-16T00:38:20.219Z,26.4
2017-01-16T00:39:22.028Z,26.4
2017-01-16T00:40:20.376Z,26.4
2017-01-16T00:41:21.414Z,26.4
2017-01-16T00:42:20.430Z,26.4
2017-01-16T00:43:21.549Z,26.4
2017-01-16T00:44:21.676Z,26.4
2017-01-16T00:45:21.668Z,26.4
2017-01-16T00:46:22.918Z,26.4
2017-01-16T00:47:22.355Z,26.4
2017-01-16T00:48:21.897Z,26.4
2017-01-16T00:49:21.820Z,26.4
2017-01-16T00:50:20.873Z,26.4
2017-01-16T00:51:21.922Z,26.4
2017-01-16T00:52:22.102Z,26.4
2017-01-16T00:53:22.046Z,26.4
2017-01-16T00:54:22.270Z,26.4
2017-01-16T00:55:21.135Z,26.4
2017-01-16T00:56:21.827Z,26.4
2017-01-16T00:57:22.157Z,26.4
2017-01-16T00:58:22.332Z,26.4
2017-01-16T00:59:22.340Z,26.4
2017-01-16T01:00:23.114Z,26.4
2017-01-16T01:01:22.493Z,26.4
2017-01-16T01:02:22.433Z,26.4
2017-01-16T01:03:22.704Z,26.4
2017-01-16T01:04:21.628Z,26.4
2017-01-16T01:05:21.663Z,26.4
2017-01-16T01:06:22.615Z,26.4
2017-01-16T01:07:21.632Z,26.4
2017-01-16T01:08:21.641Z,26.4
2017-01-16T01:09:22.730Z,26.4
2017-01-16T01:10:21.910Z,26.4
2017-01-16T01:11:22.836Z,26.4
2017-01-16T01:12:22.959Z,26.4
2017-01-16T01:13:21.900Z,26.4
2017-01-16T01:14:22.918Z,26.4
2017-01-16T01:15:21.966Z,26.4
2017-01-16T01:16:21.833Z,26.4
2017-01-16T01:17:22.955Z,26.4
2017-01-16T01:18:23.108Z,26.4
2017-01-16T01:19:22.116Z,26.4
2017-01-16T01:20:22.102Z,26.4
2017-01-16T01:21:23.241Z,26.4
2017-01-16T01:22:23.237Z,26.4
2017-01-16T01:23:23.067Z,26.4
2017-01-16T01:24:22.420Z,26.4
2017-01-16T01:25:22.416Z,26.4
2017-01-16T01:26:22.628Z,26.4
2017-01-16T01:27:22.595Z,26.4
2017-01-16T01:28:23.749Z,26.4
2017-01-16T01:29:22.569Z,26.4
2017-01-16T01:30:23.708Z,26.4
2017-01-16T01:31:23.891Z,26.4
2017-01-16T01:32:22.926Z,26.4
2017-01-16T01:33:23.979Z,26.4
2017-01-16T01:34:25.824Z,26.4
2017-01-16T01:35:24.684Z,26.4
2017-01-16T01:36:23.038Z,26.4
2017-01-16T01:37:23.012Z,26.4
2017-01-16T01:38:24.778Z,26.4
2017-01-16T01:39:24.146Z,26.4
2017-01-16T01:40:24.354Z,26.4
2017-01-16T01:41:24.424Z,26.4
2017-01-16T01:42:24.463Z,26.4
2017-01-16T01:43:24.652Z,26.4
2017-01-16T01:44:23.551Z,26.4
2017-01-16T01:45:23.536Z,26.4
2017-01-16T01:46:24.594Z,26.4
2017-01-16T01:47:23.582Z,26.4
2017-01-16T01:48:23.762Z,26.4
2017-01-16T01:49:24.808Z,26.4
2017-01-16T01:50:23.773Z,26.4
2017-01-16T01:51:25.516Z,26.4
2017-01-16T01:52:25.036Z,26.4
2017-01-16T01:53:25.108Z,26.4
2017-01-16T01:54:24.015Z,26.4
2017-01-16T01:55:25.169Z,26.4
2017-01-16T01:56:25.241Z,26.4
2017-01-16T01:57:24.151Z,26.4
2017-01-16T01:58:24.300Z,26.4
2017-01-16T01:59:26.017Z,26.4
2017-01-16T02:00:25.384Z,26.4
2017-01-16T02:01:26.089Z,26.4
2017-01-16T02:02:24.425Z,26.4
2017-01-16T02:03:25.632Z,26.4
2017-01-16T02:04:24.638Z,26.4
2017-01-16T02:05:25.755Z,26.4
2017-01-16T02:06:25.786Z,26.4
2017-01-16T02:07:25.976Z,26.4
2017-01-16T02:08:24.885Z,26.4
2017-01-16T02:09:26.085Z,26.4
2017-01-16T02:10:26.278Z,26.4
2017-01-16T02:11:26.193Z,26.4
2017-01-16T02:12:25.293Z,26.4
2017-01-16T02:13:26.393Z,26.4
2017-01-16T02:14:25.287Z,26.4
2017-01-16T02:15:25.410Z,26.4
2017-01-16T02:16:25.513Z,26.4
2017-01-16T02:17:26.647Z,26.4
2017-01-16T02:18:26.597Z,26.4
2017-01-16T02:19:26.395Z,26.4
2017-01-16T02:20:25.636Z,26.4
2017-01-16T02:21:25.828Z,26.4
2017-01-16T02:22:26.902Z,26.4
2017-01-16T02:23:26.866Z,26.4
2017-01-16T02:24:26.874Z,26.4
2017-01-16T02:25:27.059Z,26.4
2017-01-16T02:26:27.135Z,26.4
2017-01-16T02:27:26.002Z,26.4
2017-01-16T02:28:26.102Z,26.4
2017-01-16T02:29:27.274Z,26.4
2017-01-16T02:30:26.354Z,26.4
2017-01-16T02:31:26.403Z,26.4
2017-01-16T02:32:26.430Z,26.4
2017-01-16T02:33:28.376Z,26.4
2017-01-16T02:34:26.547Z,26.4
2017-01-16T02:35:27.605Z,26.4
2017-01-16T02:36:26.489Z,26.4
2017-01-16T02:37:27.632Z,26.4
2017-01-16T02:38:26.692Z,26.4
2017-01-16T02:39:26.601Z,26.4
2017-01-16T02:40:26.697Z,26.4
2017-01-16T02:41:26.834Z,26.4
2017-01-16T02:42:27.850Z,26.4
2017-01-16T02:43:26.945Z,26.4
2017-01-16T02:44:27.978Z,26.4
2017-01-16T02:45:28.068Z,26.4
2017-01-16T02:46:28.664Z,26.4
2017-01-16T02:47:28.882Z,26.4
2017-01-16T02:48:27.212Z,26.4
2017-01-16T02:49:27.766Z,26.4
2017-01-16T02:50:28.852Z,26.4
2017-01-16T02:51:44.861Z,26.4
2017-01-16T02:53:01.937Z,26.4
2017-01-16T02:53:28.530Z,26.4
2017-01-16T02:54:27.501Z,26.4
2017-01-16T02:55:27.578Z,26.4
2017-01-16T02:56:28.761Z,26.4
2017-01-16T02:57:27.612Z,26.4
2017-01-16T02:58:27.714Z,26.4
2017-01-16T02:59:28.708Z,26.4
2017-01-16T03:00:28.217Z,26.4
2017-01-16T03:01:28.863Z,26.4
2017-01-16T03:02:27.800Z,26.4
2017-01-16T03:03:27.817Z,26.4
2017-01-16T03:04:28.895Z,26.4
2017-01-16T03:05:27.866Z,26.4
2017-01-16T03:06:28.953Z,26.4
2017-01-16T03:07:28.968Z,26.4
2017-01-16T03:08:29.217Z,26.4
2017-01-16T03:09:28.056Z,26.4
2017-01-16T03:10:29.871Z,26.4
2017-01-16T03:11:29.260Z,26.4
2017-01-16T03:12:28.141Z,26.4
2017-01-16T03:13:29.323Z,26.4
2017-01-16T03:14:29.500Z,26.4
2017-01-16T03:15:28.504Z,26.4
2017-01-16T03:16:29.587Z,26.4
2017-01-16T03:17:28.486Z,26.4
2017-01-16T03:18:29.764Z,26.4
2017-01-16T03:19:28.531Z,26.4
2017-01-16T03:20:28.615Z,26.4
2017-01-16T03:21:29.676Z,26.4
2017-01-16T03:22:28.788Z,26.4
2017-01-16T03:23:29.853Z,26.4
2017-01-16T03:24:28.829Z,26.4
2017-01-16T03:25:29.795Z,26.4
2017-01-16T03:26:30.378Z,26.4
2017-01-16T03:27:29.866Z,26.4
2017-01-16T03:28:28.800Z,26.4
2017-01-16T03:29:28.797Z,26.4
2017-01-16T03:30:28.824Z,26.4
2017-01-16T03:31:28.973Z,26.4
2017-01-16T03:32:28.970Z,26.4
2017-01-16T03:33:29.030Z,26.4
2017-01-16T03:34:30.093Z,26.4
2017-01-16T03:35:29.734Z,26.4
2017-01-16T03:36:29.246Z,26.4
2017-01-16T03:37:29.205Z,26.4
2017-01-16T03:38:29.275Z,26.4
2017-01-16T03:39:29.507Z,26.4
2017-01-16T03:40:29.539Z,26.4
2017-01-16T03:41:30.643Z,26.4
2017-01-16T03:42:30.703Z,26.4
2017-01-16T03:43:29.619Z,26.4
2017-01-16T03:44:29.739Z,26.4
2017-01-16T03:45:29.807Z,26.4
2017-01-16T03:46:30.956Z,26.4
2017-01-16T03:47:32.214Z,26.4
2017-01-16T03:48:31.018Z,26.4
2017-01-16T03:49:30.708Z,26.4
2017-01-16T03:50:30.765Z,26.4
2017-01-16T03:51:31.194Z,26.4
2017-01-16T03:52:30.172Z,26.4
2017-01-16T03:53:30.149Z,26.4
2017-01-16T03:54:30.215Z,26.4
2017-01-16T03:55:31.363Z,26.4
2017-01-16T03:56:30.289Z,26.4
2017-01-16T03:57:30.381Z,26.4
2017-01-16T03:58:31.491Z,26.4
2017-01-16T03:59:32.161Z,26.4
2017-01-16T04:00:31.168Z,26.4
2017-01-16T04:01:31.578Z,26.4
2017-01-16T04:02:32.308Z,26.4
2017-01-16T04:03:31.647Z,26.4
2017-01-16T04:04:30.618Z,26.4
2017-01-16T04:05:31.859Z,26.4
2017-01-16T04:06:30.845Z,26.4
2017-01-16T04:07:31.906Z,26.4
2017-01-16T04:08:30.874Z,26.4
2017-01-16T04:09:31.914Z,26.4
2017-01-16T04:10:30.867Z,26.4
2017-01-16T04:11:32.014Z,26.4
2017-01-16T04:12:30.880Z,26.4
2017-01-16T04:13:32.049Z,26.4
2017-01-16T04:14:31.047Z,26.4
2017-01-16T04:15:32.085Z,26.4
2017-01-16T04:16:31.811Z,26.4
2017-01-16T04:17:31.266Z,26.4
2017-01-16T04:18:31.275Z,26.4
2017-01-16T04:19:31.268Z,26.4
2017-01-16T04:20:32.030Z,26.4
2017-01-16T04:21:31.402Z,26.4
2017-01-16T04:22:31.414Z,26.4
2017-01-16T04:23:31.424Z,26.4
2017-01-16T04:24:32.619Z,26.4
2017-01-16T04:25:31.547Z,26.4
2017-01-16T04:26:32.636Z,26.4
2017-01-16T04:27:31.681Z,26.4
2017-01-16T04:28:32.772Z,26.4
2017-01-16T04:29:32.753Z,26.4
2017-01-16T04:30:32.832Z,26.4
2017-01-16T04:31:31.911Z,26.4
2017-01-16T04:32:31.996Z,26.4
2017-01-16T04:33:32.006Z,26.4
2017-01-16T04:34:32.022Z,26.4
2017-01-16T04:35:33.130Z,26.4
2017-01-16T04:36:33.149Z,26.4
2017-01-16T04:37:33.292Z,26.4
2017-01-16T04:38:32.180Z,26.4
2017-01-16T04:39:33.374Z,26.4
2017-01-16T04:40:33.371Z,26.4
2017-01-16T04:41:32.307Z,26.4
2017-01-16T04:42:33.545Z,26.4
2017-01-16T04:43:34.764Z,26.4
2017-01-16T04:44:33.452Z,26.4
2017-01-16T04:45:32.448Z,26.4
2017-01-16T04:46:34.185Z,26.4
2017-01-16T04:47:33.569Z,26.4
2017-01-16T04:48:32.535Z,26.4
2017-01-16T04:49:34.449Z,26.4
2017-01-16T04:50:32.701Z,26.4
2017-01-16T04:51:32.756Z,26.4
2017-01-16T04:52:34.459Z,26.4
2017-01-16T04:53:33.932Z,26.4
2017-01-16T04:54:33.930Z,26.4
2017-01-16T04:55:33.991Z,26.4
2017-01-16T04:56:33.995Z,26.4
2017-01-16T04:57:32.989Z,26.4
2017-01-16T04:58:34.775Z,26.4
2017-01-16T04:59:34.172Z,26.4
2017-01-16T05:00:33.121Z,26.4
2017-01-16T05:01:33.244Z,26.4
2017-01-16T05:02:33.133Z,26.4
2017-01-16T05:03:33.295Z,26.4
2017-01-16T05:04:33.197Z,26.4
2017-01-16T05:05:34.451Z,26.4
2017-01-16T05:06:34.456Z,26.4
2017-01-16T05:07:34.474Z,26.4
2017-01-16T05:08:33.487Z,26.4
2017-01-16T05:09:34.489Z,26.4
2017-01-16T05:10:34.593Z,26.4
2017-01-16T05:11:34.523Z,26.4
2017-01-16T05:12:33.498Z,26.4
2017-01-16T05:13:33.776Z,26.4
2017-01-16T05:14:33.589Z,26.4
2017-01-16T05:15:34.740Z,26.5
2017-01-16T05:16:34.842Z,26.5
2017-01-16T05:17:34.928Z,26.6
2017-01-16T05:18:33.919Z,26.6
2017-01-16T05:19:35.064Z,26.7
2017-01-16T05:20:35.126Z,26.7
2017-01-16T05:21:35.172Z,26.7
2017-01-16T05:22:35.371Z,26.7
2017-01-16T05:23:34.198Z,26.7
2017-01-16T05:24:35.264Z,26.7
2017-01-16T05:25:35.232Z,26.7
2017-01-16T05:26:34.188Z,26.7
2017-01-16T05:27:34.365Z,26.7
2017-01-16T05:28:34.412Z,26.7
2017-01-16T05:29:34.411Z,26.7
2017-01-16T05:30:35.496Z,26.6
2017-01-16T05:31:35.477Z,26.6
2017-01-16T05:32:35.594Z,26.6
2017-01-16T05:33:35.620Z,26.6
2017-01-16T05:34:34.602Z,26.6
2017-01-16T05:35:35.682Z,26.6
2017-01-16T05:36:34.789Z,26.6
2017-01-16T05:37:35.859Z,26.6
2017-01-16T05:38:35.908Z,26.6
2017-01-16T05:39:34.903Z,26.6
2017-01-16T05:40:36.010Z,26.6
2017-01-16T05:41:35.026Z,26.6
2017-01-16T05:42:36.178Z,26.5
2017-01-16T05:43:36.342Z,26.5
2017-01-16T05:44:36.391Z,26.5
2017-01-16T05:45:35.242Z,26.5
2017-01-16T05:46:36.446Z,26.5
2017-01-16T05:47:35.456Z,26.5
2017-01-16T05:48:35.572Z,26.5
2017-01-16T05:49:37.281Z,26.5
2017-01-16T05:50:35.636Z,26.5
2017-01-16T05:51:35.728Z,26.5
2017-01-16T05:52:35.792Z,26.5
2017-01-16T05:53:36.894Z,26.5
2017-01-16T05:54:36.878Z,26.5
2017-01-16T05:55:35.971Z,26.5
2017-01-16T05:56:37.648Z,26.5
2017-01-16T05:57:37.690Z,26.5
2017-01-16T05:58:36.958Z,26.5
2017-01-16T05:59:37.725Z,26.5
2017-01-16T06:00:36.127Z,26.5
2017-01-16T06:01:37.289Z,26.5
2017-01-16T06:02:37.271Z,26.5
2017-01-16T06:03:37.324Z,26.5
2017-01-16T06:04:37.299Z,26.5
2017-01-16T06:05:36.409Z,26.5
2017-01-16T06:06:37.461Z,26.5
2017-01-16T06:07:36.514Z,26.5
2017-01-16T06:08:37.551Z,26.5
2017-01-16T06:09:37.640Z,26.5
2017-01-16T06:10:37.724Z,26.5
2017-01-16T06:11:36.743Z,26.4
2017-01-16T06:12:38.586Z,26.4
2017-01-16T06:13:38.020Z,26.4
2017-01-16T06:14:37.052Z,26.4
2017-01-16T06:15:38.195Z,26.4
2017-01-16T06:16:37.043Z,26.4
2017-01-16T06:17:37.633Z,26.4
2017-01-16T06:18:38.198Z,26.4
2017-01-16T06:19:38.208Z,26.4
2017-01-16T06:20:37.234Z,26.4
2017-01-16T06:21:37.960Z,26.4
2017-01-16T06:22:38.406Z,26.4
2017-01-16T06:23:37.270Z,26.4
2017-01-16T06:24:38.568Z,26.4
2017-01-16T06:25:38.495Z,26.4
2017-01-16T06:26:38.535Z,26.4
2017-01-16T06:27:37.673Z,26.4
2017-01-16T06:28:38.827Z,26.4
2017-01-16T06:29:37.593Z,26.4
2017-01-16T06:30:37.601Z,26.4
2017-01-16T06:31:38.247Z,26.4
2017-01-16T06:32:37.705Z,26.4
2017-01-16T06:33:37.720Z,26.4
2017-01-16T06:34:38.839Z,26.4
2017-01-16T06:35:37.768Z,26.4
2017-01-16T06:36:37.922Z,26.4
2017-01-16T06:37:38.952Z,26.4
2017-01-16T06:38:37.943Z,26.4
2017-01-16T06:39:39.037Z,26.4
2017-01-16T06:40:38.648Z,26.4
2017-01-16T06:41:40.082Z,26.4
2017-01-16T06:42:37.968Z,26.4
2017-01-16T06:43:38.007Z,26.4
2017-01-16T06:44:39.223Z,26.4
2017-01-16T06:45:38.075Z,26.4
2017-01-16T06:46:38.221Z,26.4
2017-01-16T06:47:39.297Z,26.4
2017-01-16T06:48:38.852Z,26.4
2017-01-16T06:49:40.020Z,26.4
2017-01-16T06:50:39.409Z,26.4
2017-01-16T06:51:38.491Z,26.4
2017-01-16T06:52:39.604Z,26.4
2017-01-16T06:53:38.491Z,26.4
2017-01-16T06:54:38.642Z,26.4
2017-01-16T06:55:39.704Z,26.4
2017-01-16T06:56:38.750Z,26.4
2017-01-16T06:57:38.714Z,26.4
2017-01-16T06:58:38.721Z,26.4
2017-01-16T06:59:38.832Z,26.3
2017-01-16T07:00:39.987Z,26.3
2017-01-16T07:01:38.910Z,26.4
2017-01-16T07:02:40.071Z,26.4
2017-01-16T07:03:40.229Z,26.4
2017-01-16T07:04:40.237Z,26.4
2017-01-16T07:05:40.199Z,26.4
2017-01-16T07:06:39.324Z,26.4
2017-01-16T07:07:40.383Z,26.3
2017-01-16T07:08:40.105Z,26.3
2017-01-16T07:09:39.450Z,26.4
2017-01-16T07:10:39.537Z,26.4
2017-01-16T07:11:40.176Z,26.3
2017-01-16T07:12:40.611Z,26.3
2017-01-16T07:13:39.750Z,26.3
2017-01-16T07:14:39.664Z,26.3
2017-01-16T07:15:40.800Z,26.3
2017-01-16T07:16:40.614Z,26.3
2017-01-16T07:17:40.973Z,26.3
2017-01-16T07:18:39.849Z,26.3
2017-01-16T07:19:40.983Z,26.3
2017-01-16T07:20:40.692Z,26.3
2017-01-16T07:21:40.106Z,26.3
2017-01-16T07:22:41.187Z,26.3
2017-01-16T07:23:41.296Z,26.3
2017-01-16T07:24:41.558Z,26.3
2017-01-16T07:25:40.244Z,26.3
2017-01-16T07:26:41.414Z,26.3
2017-01-16T07:27:41.413Z,26.3
2017-01-16T07:28:41.464Z,26.3
2017-01-16T07:29:41.468Z,26.3
2017-01-16T07:30:41.029Z,26.3
2017-01-16T07:31:40.434Z,26.3
2017-01-16T07:32:41.535Z,26.3
2017-01-16T07:33:40.537Z,26.3
2017-01-16T07:34:42.943Z,26.3
2017-01-16T07:35:41.663Z,26.3
2017-01-16T07:36:43.077Z,26.3
2017-01-16T07:37:41.726Z,26.3
2017-01-16T07:38:40.809Z,26.3
2017-01-16T07:39:40.795Z,26.3
2017-01-16T07:40:40.880Z,26.3
2017-01-16T07:41:41.502Z,26.3
2017-01-16T07:42:41.949Z,26.3
2017-01-16T07:43:42.033Z,26.3
2017-01-16T07:44:41.710Z,26.3
2017-01-16T07:45:41.171Z,26.3
2017-01-16T07:46:42.115Z,26.3
2017-01-16T07:47:41.320Z,26.3
2017-01-16T07:48:43.229Z,26.3
2017-01-16T07:49:42.714Z,26.3
2017-01-16T07:50:42.669Z,26.3
2017-01-16T07:51:42.179Z,26.3
2017-01-16T07:52:42.702Z,26.4
2017-01-16T07:53:42.753Z,26.4
2017-01-16T07:54:42.744Z,26.4
2017-01-16T07:55:44.430Z,26.4
2017-01-16T07:56:41.819Z,26.4
2017-01-16T07:57:41.822Z,26.4
2017-01-16T07:58:42.898Z,26.4
2017-01-16T07:59:42.876Z,26.4
2017-01-16T08:00:42.453Z,26.4
2017-01-16T08:01:43.068Z,26.5
2017-01-16T08:02:43.068Z,26.5
2017-01-16T08:03:41.966Z,26.5
2017-01-16T08:04:43.166Z,26.5
2017-01-16T08:05:42.057Z,26.5
2017-01-16T08:06:43.268Z,26.5
2017-01-16T08:07:42.191Z,26.5
2017-01-16T08:08:43.382Z,26.5
2017-01-16T08:09:43.368Z,26.5
2017-01-16T08:10:44.122Z,26.5
2017-01-16T08:11:42.719Z,26.5
2017-01-16T08:12:43.744Z,26.5
2017-01-16T08:13:43.662Z,26.5
2017-01-16T08:14:43.428Z,26.5
2017-01-16T08:15:43.284Z,26.5
2017-01-16T08:16:42.760Z,26.5
2017-01-16T08:17:42.948Z,26.5
2017-01-16T08:18:43.005Z,26.6
2017-01-16T08:19:43.115Z,26.6
2017-01-16T08:20:44.228Z,26.6
2017-01-16T08:21:43.271Z,26.6
2017-01-16T08:22:44.556Z,26.6
2017-01-16T08:23:43.535Z,26.6
2017-01-16T08:24:44.909Z,26.6
2017-01-16T08:25:44.444Z,26.6
2017-01-16T08:26:44.500Z,26.6
2017-01-16T08:27:44.663Z,26.6
2017-01-16T08:28:44.734Z,26.6
2017-01-16T08:29:46.002Z,26.7
2017-01-16T08:30:44.675Z,26.7
2017-01-16T08:31:44.720Z,26.7
2017-01-16T08:32:43.866Z,26.7
2017-01-16T08:33:44.019Z,26.7
2017-01-16T08:34:45.783Z,26.7
2017-01-16T08:35:46.099Z,26.7
2017-01-16T08:36:45.225Z,26.7
2017-01-16T08:37:45.240Z,26.7
2017-01-16T08:38:45.210Z,26.7
2017-01-16T08:39:46.525Z,26.7
2017-01-16T08:40:45.433Z,26.7
2017-01-16T08:41:45.371Z,26.7
2017-01-16T08:42:45.997Z,26.7
2017-01-16T08:43:45.067Z,26.7
2017-01-16T08:44:45.260Z,26.7
2017-01-16T08:45:46.061Z,26.7
2017-01-16T08:46:45.910Z,26.7
2017-01-16T08:47:44.716Z,26.8
2017-01-16T08:48:45.348Z,26.8
2017-01-16T08:49:44.825Z,26.8
2017-01-16T08:50:44.834Z,26.8
2017-01-16T08:51:45.997Z,26.8
2017-01-16T08:52:46.668Z,26.8
2017-01-16T08:53:45.181Z,26.8
2017-01-16T08:54:46.147Z,26.8
2017-01-16T08:55:46.252Z,26.8
2017-01-16T08:56:46.161Z,26.8
2017-01-16T08:57:46.248Z,26.8
2017-01-16T08:58:46.401Z,26.8
2017-01-16T08:59:45.388Z,26.8
2017-01-16T09:00:46.932Z,26.8
2017-01-16T09:01:46.428Z,26.8
2017-01-16T09:02:45.493Z,26.8
2017-01-16T09:03:45.466Z,26.8
2017-01-16T09:04:46.704Z,26.9
2017-01-16T09:05:45.621Z,26.9
2017-01-16T09:06:46.688Z,26.9
2017-01-16T09:07:46.786Z,26.9
2017-01-16T09:08:45.768Z,26.9
2017-01-16T09:09:45.696Z,26.9
2017-01-16T09:10:46.921Z,26.9
2017-01-16T09:11:46.421Z,26.9
2017-01-16T09:12:46.821Z,26.9
2017-01-16T09:13:46.895Z,26.9
2017-01-16T09:14:47.251Z,26.9
2017-01-16T09:15:51.689Z,26.9
2017-01-16T09:16:48.866Z,26.9
2017-01-16T09:17:48.259Z,27
2017-01-16T09:18:47.845Z,27
2017-01-16T09:19:47.815Z,27
2017-01-16T09:20:46.273Z,27
2017-01-16T09:21:47.299Z,27
2017-01-16T09:22:46.594Z,27
2017-01-16T09:23:47.022Z,27
2017-01-16T09:24:47.057Z,27
2017-01-16T09:25:46.611Z,27
2017-01-16T09:26:48.449Z,27
2017-01-16T09:27:46.646Z,26.9
2017-01-16T09:28:47.833Z,26.9
2017-01-16T09:29:46.703Z,26.9
2017-01-16T09:30:48.039Z,26.9
2017-01-16T09:31:48.847Z,26.9
2017-01-16T09:32:46.929Z,26.9
2017-01-16T09:33:47.087Z,26.9
2017-01-16T09:34:48.771Z,26.9
2017-01-16T09:35:47.061Z,26.9
2017-01-16T09:36:48.787Z,26.9
2017-01-16T09:37:47.945Z,26.9
2017-01-16T09:38:47.827Z,26.9
2017-01-16T09:39:47.907Z,26.9
2017-01-16T09:40:48.526Z,26.9
2017-01-16T09:41:48.502Z,26.9
2017-01-16T09:42:47.516Z,26.9
2017-01-16T09:43:47.507Z,26.9
2017-01-16T09:44:48.604Z,26.9
2017-01-16T09:45:48.656Z,26.9
2017-01-16T09:46:51.426Z,26.9
2017-01-16T09:47:48.829Z,26.9
2017-01-16T09:48:48.485Z,27
2017-01-16T09:49:50.533Z,27
2017-01-16T09:50:49.414Z,27
2017-01-16T09:51:48.015Z,27
2017-01-16T09:52:50.918Z,26.9
2017-01-16T09:53:49.110Z,26.9
2017-01-16T09:54:49.792Z,26.9
2017-01-16T09:55:48.104Z,26.9
2017-01-16T09:56:49.390Z,26.9
2017-01-16T09:57:49.360Z,26.9
2017-01-16T09:58:48.223Z,26.9
2017-01-16T09:59:50.056Z,26.9
2017-01-16T10:00:48.490Z,26.9
2017-01-16T10:01:48.925Z,26.9
2017-01-16T10:02:48.481Z,26.8
2017-01-16T10:03:49.758Z,26.8
2017-01-16T10:04:49.865Z,26.8
2017-01-16T10:05:49.746Z,26.8
2017-01-16T10:06:48.786Z,26.8
2017-01-16T10:07:49.895Z,26.8
2017-01-16T10:08:50.198Z,26.8
2017-01-16T10:09:49.025Z,26.8
2017-01-16T10:10:50.004Z,26.8
2017-01-16T10:11:50.095Z,26.8
2017-01-16T10:12:49.746Z,26.8
2017-01-16T10:13:49.780Z,26.8
2017-01-16T10:14:49.314Z,26.8
2017-01-16T10:15:49.300Z,26.8
2017-01-16T10:16:49.362Z,26.8
2017-01-16T10:17:50.433Z,26.8
2017-01-16T10:18:50.673Z,26.8
2017-01-16T10:19:50.211Z,26.7
2017-01-16T10:20:50.754Z,26.7
2017-01-16T10:21:50.753Z,26.7
2017-01-16T10:22:49.724Z,26.8
2017-01-16T10:23:49.769Z,26.8
2017-01-16T10:24:50.281Z,26.8
2017-01-16T10:25:51.728Z,26.8
2017-01-16T10:26:51.626Z,26.8
2017-01-16T10:27:52.102Z,26.9
2017-01-16T10:28:50.883Z,26.9
2017-01-16T10:29:51.698Z,26.9
2017-01-16T10:30:51.543Z,27
2017-01-16T10:31:50.848Z,27
2017-01-16T10:32:50.806Z,27
2017-01-16T10:33:50.367Z,27
2017-01-16T10:34:53.176Z,27
2017-01-16T10:35:51.467Z,27
2017-01-16T10:36:51.516Z,27
2017-01-16T10:37:50.512Z,27
2017-01-16T10:38:50.600Z,27
2017-01-16T10:39:50.788Z,27
2017-01-16T10:40:51.772Z,27
2017-01-16T10:41:51.801Z,27
2017-01-16T10:42:50.919Z,27
2017-01-16T10:43:50.846Z,27
2017-01-16T10:44:53.834Z,27
2017-01-16T10:45:50.954Z,27
2017-01-16T10:46:53.436Z,27
2017-01-16T10:47:53.383Z,27
2017-01-16T10:48:51.234Z,27
2017-01-16T10:49:51.183Z,27
2017-01-16T10:50:53.653Z,27
2017-01-16T10:51:51.405Z,26.9
2017-01-16T10:52:51.434Z,26.9
2017-01-16T10:53:52.607Z,26.8
2017-01-16T10:54:51.489Z,26.8
2017-01-16T10:55:53.195Z,26.8
2017-01-16T10:56:52.833Z,26.8
2017-01-16T10:57:51.680Z,26.8
2017-01-16T10:58:52.381Z,26.8
2017-01-16T10:59:51.739Z,26.8
2017-01-16T11:00:52.867Z,26.8
2017-01-16T11:01:52.529Z,26.8
2017-01-16T11:02:52.744Z,26.8
2017-01-16T11:03:53.070Z,26.9
2017-01-16T11:04:52.147Z,26.9
2017-01-16T11:05:52.026Z,26.9
2017-01-16T11:06:52.827Z,26.8
2017-01-16T11:07:52.194Z,26.8
2017-01-16T11:08:53.330Z,26.8
2017-01-16T11:09:54.579Z,26.8
2017-01-16T11:10:53.624Z,26.7
2017-01-16T11:11:54.203Z,26.7
2017-01-16T11:12:53.484Z,26.7
2017-01-16T11:13:52.735Z,26.7
2017-01-16T11:14:53.472Z,26.7
2017-01-16T11:15:55.420Z,26.7
2017-01-16T11:16:52.646Z,26.7
2017-01-16T11:17:53.867Z,26.7
2017-01-16T11:18:52.566Z,26.7
2017-01-16T11:19:53.408Z,26.7
2017-01-16T11:20:52.764Z,26.7
2017-01-16T11:21:55.036Z,26.7
2017-01-16T11:22:52.764Z,26.7
2017-01-16T11:23:53.590Z,26.8
2017-01-16T11:24:52.795Z,26.8
2017-01-16T11:25:53.491Z,26.8
2017-01-16T11:26:53.690Z,26.8
2017-01-16T11:27:53.835Z,26.8
2017-01-16T11:28:57.520Z,26.8
2017-01-16T11:29:55.186Z,26.8
2017-01-16T11:30:58.244Z,26.8
2017-01-16T11:31:58.155Z,26.9
2017-01-16T11:33:01.596Z,26.8
2017-01-16T11:34:00.133Z,26.8
2017-01-16T11:34:59.775Z,26.8
2017-01-16T11:36:06.596Z,26.9
2017-01-16T11:36:54.192Z,26.7
2017-01-16T11:37:53.590Z,26.4
2017-01-16T11:38:54.915Z,26.1
2017-01-16T11:39:55.427Z,25.7
2017-01-16T11:40:54.515Z,25.4
2017-01-16T11:41:56.847Z,25.1
2017-01-16T11:42:57.211Z,24.8
2017-01-16T11:43:55.696Z,24.5
2017-01-16T11:45:03.480Z,24.3
2017-01-16T11:45:57.319Z,24.1
2017-01-16T11:46:57.918Z,23.9
2017-01-16T11:47:57.158Z,23.7
2017-01-16T11:48:56.596Z,23.5
2017-01-16T11:50:01.212Z,23.3
2017-01-16T11:50:55.715Z,23.1
2017-01-16T11:51:56.262Z,23
2017-01-16T11:53:00.775Z,22.9
2017-01-16T11:54:10.504Z,22.8
2017-01-16T11:55:03.096Z,22.6
2017-01-16T11:56:04.921Z,22.5
2017-01-16T11:57:05.938Z,22.4
2017-01-16T11:57:59.052Z,22.3
2017-01-16T11:59:03.210Z,22.2
2017-01-16T12:00:06.274Z,22.1
2017-01-16T12:01:07.208Z,22
2017-01-16T12:02:07.010Z,22.1
2017-01-16T12:03:10.994Z,22.3
2017-01-16T12:04:05.904Z,22.6
2017-01-16T12:04:58.639Z,22.8
2017-01-16T12:05:57.564Z,23
2017-01-16T12:06:56.891Z,23.3
2017-01-16T12:08:00.808Z,23.4
2017-01-16T12:08:58.988Z,23.6
2017-01-16T12:09:59.667Z,23.8
2017-01-16T12:10:57.297Z,23.9
2017-01-16T12:11:56.934Z,24
2017-01-16T12:12:57.332Z,24.1
2017-01-16T12:13:56.979Z,24.2
2017-01-16T12:14:57.407Z,24.3
2017-01-16T12:15:59.283Z,24.4
2017-01-16T12:16:57.010Z,24.5
2017-01-16T12:17:55.745Z,24.6
2017-01-16T12:18:56.819Z,24.7
2017-01-16T12:19:56.841Z,24.8
2017-01-16T12:20:57.358Z,24.9
2017-01-16T12:21:57.668Z,25
2017-01-16T12:22:58.118Z,25
2017-01-16T12:23:57.463Z,25.1
2017-01-16T12:24:57.128Z,25.1
2017-01-16T12:25:57.781Z,25.2
2017-01-16T12:26:58.182Z,25.2
2017-01-16T12:27:58.082Z,25.2
2017-01-16T12:28:56.295Z,25.2
2017-01-16T12:29:58.015Z,25.2
2017-01-16T12:30:57.512Z,25.3
2017-01-16T12:31:57.169Z,25.3
2017-01-16T12:32:56.474Z,25.3
2017-01-16T12:33:56.605Z,25.3
2017-01-16T12:34:56.827Z,25.3
2017-01-16T12:35:58.414Z,25.4
2017-01-16T12:36:58.090Z,25.4
2017-01-16T12:37:57.889Z,25.4
2017-01-16T12:38:58.020Z,25.4
2017-01-16T12:39:58.678Z,25.4
2017-01-16T12:40:58.086Z,25.4
2017-01-16T12:41:57.174Z,25.4
2017-01-16T12:42:58.225Z,25.5
2017-01-16T12:43:59.467Z,25.5
2017-01-16T12:44:58.315Z,25.5
2017-01-16T12:45:58.761Z,25.6
2017-01-16T12:46:58.688Z,25.7
2017-01-16T12:47:57.518Z,25.7
2017-01-16T12:48:58.615Z,25.8
2017-01-16T12:49:58.668Z,25.9
2017-01-16T12:50:58.619Z,26
2017-01-16T12:51:58.438Z,26
2017-01-16T12:52:57.610Z,26.1
2017-01-16T12:53:58.697Z,26.1
2017-01-16T12:54:58.498Z,26.1
2017-01-16T12:55:58.896Z,26.2
2017-01-16T12:56:59.211Z,26.2
2017-01-16T12:57:58.016Z,26.2
2017-01-16T12:58:59.631Z,26.2
2017-01-16T12:59:59.069Z,26.3
2017-01-16T13:00:58.180Z,26.3
2017-01-16T13:01:59.275Z,26.3
2017-01-16T13:02:58.734Z,26.4
2017-01-16T13:03:58.250Z,26.4
2017-01-16T13:04:59.453Z,26.4
2017-01-16T13:05:59.734Z,26.4
2017-01-16T13:06:59.485Z,26.4
2017-01-16T13:07:58.584Z,26.5
2017-01-16T13:08:59.297Z,26.5
2017-01-16T13:09:59.652Z,26.6
2017-01-16T13:10:58.753Z,26.6
2017-01-16T13:11:59.553Z,26.7
2017-01-16T13:12:59.860Z,26.7
2017-01-16T13:13:59.977Z,26.7
2017-01-16T13:15:00.668Z,26.8
2017-01-16T13:16:00.082Z,26.8
2017-01-16T13:16:59.077Z,26.9
2017-01-16T13:17:59.948Z,26.9
2017-01-16T13:18:59.749Z,26.9
2017-01-16T13:19:59.231Z,26.9
2017-01-16T13:20:59.344Z,26.9
2017-01-16T13:21:59.917Z,26.9